createdAt,value
2022-10-21T00:00:08.191Z,104.73
2022-10-21T00:02:46.561Z,101.77
2022-10-21T00:05:23.253Z,107.37
2022-10-21T00:07:57.482Z,108.07
2022-10-21T00:10:31.756Z,116.70
2022-10-21T00:13:05.869Z,113.53
2022-10-21T00:15:39.796Z,111.50
2022-10-21T00:18:15.231Z,129.37
2022-10-21T00:20:51.285Z,117.30
2022-10-21T00:23:26.137Z,124.20
2022-10-21T00:26:02.649Z,128.13
2022-10-21T00:28:37.293Z,112.57
2022-10-21T00:31:13.283Z,111.77
2022-10-21T00:33:47.367Z,113.70
2022-10-21T00:36:23.767Z,113.17
2022-10-21T00:38:57.695Z,100.17
2022-10-21T00:41:32.051Z,96.07
2022-10-21T00:44:09.242Z,102.87
2022-10-21T00:46:46.720Z,99.40
2022-10-21T00:49:29.150Z,105.67
2022-10-21T00:52:07.836Z,98.10
2022-10-21T00:54:42.760Z,96.43
2022-10-21T00:57:17.881Z,93.53
2022-10-21T00:59:53.876Z,103.83
2022-10-21T01:02:28.089Z,101.60
2022-10-21T01:05:06.603Z,97.33
2022-10-21T01:07:43.468Z,101.82
2022-10-21T01:10:18.206Z,89.65
2022-10-21T01:13:10.375Z,88.95
2022-10-21T01:15:54.097Z,87.78
2022-10-21T01:18:35.075Z,75.63
2022-10-21T01:21:32.992Z,68.70
2022-10-21T01:24:56.012Z,74.47
2022-10-21T01:27:39.380Z,77.13
2022-10-21T01:30:34.265Z,73.40
2022-10-21T01:33:26.620Z,75.30
2022-10-21T01:36:07.952Z,80.13
2022-10-21T01:38:48.530Z,79.07
2022-10-21T01:41:29.785Z,81.00
2022-10-21T01:44:14.834Z,79.32
2022-10-21T01:46:54.641Z,83.80
2022-10-21T01:49:34.221Z,84.80
2022-10-21T01:52:10.013Z,82.88
2022-10-21T01:54:47.614Z,84.80
2022-10-21T01:57:25.110Z,79.95
2022-10-21T02:00:01.960Z,83.55
2022-10-21T02:02:44.813Z,86.15
2022-10-21T02:05:25.321Z,84.75
2022-10-21T02:08:00.895Z,84.68
2022-10-21T02:10:38.262Z,88.20
2022-10-21T02:13:14.364Z,86.65
2022-10-21T02:15:50.776Z,85.18
2022-10-21T02:18:28.444Z,84.25
2022-10-21T02:21:06.840Z,86.00
2022-10-21T02:23:47.799Z,90.00
2022-10-21T02:26:22.939Z,78.47
2022-10-21T02:29:00.540Z,81.68
2022-10-21T02:31:46.740Z,80.88
2022-10-21T02:34:31.578Z,86.43
2022-10-21T02:37:16.595Z,86.47
2022-10-21T02:39:56.558Z,85.55
2022-10-21T02:42:39.113Z,78.88
2022-10-21T02:45:14.948Z,76.45
2022-10-21T02:47:49.974Z,78.10
2022-10-21T02:50:26.234Z,76.90
2022-10-21T02:53:00.809Z,71.55
2022-10-21T02:55:35.206Z,73.78
2022-10-21T02:58:09.283Z,67.50
2022-10-21T03:00:43.695Z,62.90
2022-10-21T03:03:18.283Z,66.45
2022-10-21T03:05:55.319Z,66.22
2022-10-21T03:08:30.280Z,65.53
2022-10-21T03:11:04.790Z,66.18
2022-10-21T03:13:39.051Z,60.53
2022-10-21T03:16:13.697Z,63.47
2022-10-21T03:18:48.823Z,63.53
2022-10-21T03:21:24.956Z,58.97
2022-10-21T03:23:59.498Z,59.03
2022-10-21T03:26:33.129Z,62.60
2022-10-21T03:29:07.373Z,62.83
2022-10-21T03:31:42.234Z,64.30
2022-10-21T03:34:16.957Z,63.63
2022-10-21T03:36:54.217Z,62.30
2022-10-21T03:39:28.729Z,64.38
2022-10-21T03:42:03.146Z,67.00
2022-10-21T03:44:38.831Z,55.10
2022-10-21T03:47:13.505Z,71.88
2022-10-21T03:49:47.901Z,66.50
2022-10-21T03:52:23.897Z,76.90
2022-10-21T03:55:00.095Z,72.55
2022-10-21T03:57:35.794Z,69.97
2022-10-21T04:02:50.488Z,75.10
2022-10-21T04:05:24.549Z,70.95
2022-10-21T04:08:01.032Z,62.10
2022-10-21T04:10:35.410Z,61.08
2022-10-21T04:13:09.823Z,63.67
2022-10-21T04:15:44.681Z,66.37
2022-10-21T04:18:19.209Z,63.60
2022-10-21T04:20:54.999Z,74.47
2022-10-21T04:23:37.240Z,68.73
2022-10-21T04:26:12.121Z,80.13
2022-10-21T04:28:47.010Z,71.70
2022-10-21T04:31:21.393Z,64.83
2022-10-21T04:33:56.202Z,68.93
2022-10-21T04:36:30.982Z,63.03
2022-10-21T04:39:10.290Z,71.97
2022-10-21T04:41:44.173Z,71.80
2022-10-21T04:44:18.974Z,72.07
2022-10-21T04:46:53.467Z,67.47
2022-10-21T04:49:28.947Z,67.80
2022-10-21T04:52:04.765Z,75.73
2022-10-21T04:54:41.941Z,78.82
2022-10-21T04:57:17.775Z,74.67
2022-10-21T04:59:57.495Z,84.87
2022-10-21T05:02:32.348Z,78.93
2022-10-21T05:05:08.262Z,72.00
2022-10-21T05:07:43.872Z,75.97
2022-10-21T05:10:20.033Z,83.13
2022-10-21T05:12:54.617Z,76.23
2022-10-21T05:15:28.989Z,78.07
2022-10-21T05:18:05.677Z,74.30
2022-10-21T05:20:39.735Z,72.07
2022-10-21T05:23:14.531Z,67.60
2022-10-21T05:25:54.937Z,71.00
2022-10-21T05:28:29.518Z,58.93
2022-10-21T05:31:03.433Z,63.37
2022-10-21T05:33:46.314Z,59.13
2022-10-21T05:36:23.231Z,56.13
2022-10-21T05:38:58.396Z,59.17
2022-10-21T05:41:35.827Z,72.53
2022-10-21T05:44:13.400Z,59.83
2022-10-21T05:46:49.132Z,53.53
2022-10-21T05:49:28.866Z,42.87
2022-10-21T05:52:09.554Z,46.17
2022-10-21T05:54:44.175Z,47.23
2022-10-21T05:57:25.005Z,67.23
2022-10-21T05:59:59.546Z,51.90
2022-10-21T06:02:39.809Z,58.53
2022-10-21T06:05:14.057Z,60.23
2022-10-21T06:07:49.167Z,60.03
2022-10-21T06:10:28.165Z,71.65
2022-10-21T06:13:07.874Z,65.53
2022-10-21T06:15:44.517Z,71.53
2022-10-21T06:18:27.599Z,75.90
2022-10-21T06:21:02.897Z,66.43
2022-10-21T06:23:37.526Z,65.50
2022-10-21T06:26:15.042Z,58.07
2022-10-21T06:28:51.246Z,67.00
2022-10-21T06:31:31.115Z,66.00
2022-10-21T06:34:06.256Z,64.07
2022-10-21T06:36:41.791Z,68.03
2022-10-21T06:39:16.339Z,71.47
2022-10-21T06:41:51.530Z,69.30
2022-10-21T06:44:47.804Z,69.73
2022-10-21T06:47:22.704Z,74.03
2022-10-21T06:49:59.043Z,74.70
2022-10-21T06:52:37.261Z,67.20
2022-10-21T06:55:13.633Z,66.17
2022-10-21T06:57:47.681Z,71.93
2022-10-21T07:00:25.060Z,71.40
2022-10-21T07:03:02.407Z,77.23
2022-10-21T07:05:35.702Z,73.17
2022-10-21T07:08:12.757Z,80.83
2022-10-21T07:10:47.578Z,80.33
2022-10-21T07:13:25.965Z,83.30
2022-10-21T07:16:10.330Z,80.80
2022-10-21T07:18:48.286Z,75.47
2022-10-21T07:21:26.287Z,89.97
2022-10-21T07:24:04.973Z,81.10
2022-10-21T07:26:44.013Z,77.10
2022-10-21T07:29:26.735Z,74.43
2022-10-21T07:32:03.004Z,82.17
2022-10-21T07:34:36.420Z,84.97
2022-10-21T07:37:12.590Z,83.80
2022-10-21T07:39:46.761Z,73.47
2022-10-21T07:42:21.311Z,75.50
2022-10-21T07:45:00.782Z,74.90
2022-10-21T07:47:40.675Z,80.13
2022-10-21T07:50:16.660Z,73.77
2022-10-21T07:53:12.079Z,79.60
2022-10-21T07:55:48.741Z,79.47
2022-10-21T07:58:27.350Z,78.47
2022-10-21T08:01:04.998Z,80.33
2022-10-21T08:03:42.149Z,77.87
2022-10-21T08:06:17.586Z,86.03
2022-10-21T08:09:02.107Z,91.40
2022-10-21T08:11:38.447Z,96.83
2022-10-21T08:14:13.608Z,92.27
2022-10-21T08:16:47.477Z,103.17
2022-10-21T08:19:30.808Z,109.27
2022-10-21T08:22:05.716Z,116.13
2022-10-21T08:24:42.322Z,112.13
2022-10-21T08:27:17.450Z,107.17
2022-10-21T08:29:54.421Z,102.93
2022-10-21T08:32:30.410Z,98.57
2022-10-21T08:35:07.683Z,108.03
2022-10-21T08:37:43.739Z,115.93
2022-10-21T08:40:20.260Z,109.87
2022-10-21T08:42:54.442Z,101.43
2022-10-21T08:45:48.003Z,97.60
2022-10-21T08:48:27.391Z,90.67
2022-10-21T08:51:11.219Z,83.77
2022-10-21T08:53:50.283Z,84.73
2022-10-21T08:59:02.935Z,86.00
2022-10-21T09:01:43.521Z,86.07
2022-10-21T09:04:25.887Z,83.33
2022-10-21T09:07:10.579Z,84.50
2022-10-21T09:09:52.332Z,77.00
2022-10-21T09:12:37.405Z,67.10
2022-10-21T09:15:27.000Z,78.57
2022-10-21T09:18:20.622Z,69.70
2022-10-21T09:21:05.868Z,68.43
2022-10-21T09:23:57.023Z,76.00
2022-10-21T09:26:43.186Z,65.83
2022-10-21T09:29:38.855Z,71.17
2022-10-21T09:32:20.082Z,64.17
2022-10-21T09:35:02.079Z,68.43
2022-10-21T09:37:41.297Z,74.00
2022-10-21T09:40:22.892Z,68.43
2022-10-21T09:43:00.399Z,61.80
2022-10-21T09:45:42.071Z,62.47
2022-10-21T09:48:36.972Z,65.77
2022-10-21T09:51:25.403Z,64.87
2022-10-21T09:54:04.855Z,58.67
2022-10-21T09:56:48.143Z,60.90
2022-10-21T09:59:25.502Z,60.27
2022-10-21T10:02:09.465Z,65.57
2022-10-21T10:04:43.677Z,56.17
2022-10-21T10:07:31.446Z,57.10
2022-10-21T10:10:08.810Z,58.30
2022-10-21T10:12:59.589Z,54.57
2022-10-21T10:15:40.048Z,59.37
2022-10-21T10:18:27.969Z,61.37
2022-10-21T10:21:14.206Z,54.63
2022-10-21T10:23:51.524Z,55.53
2022-10-21T10:26:32.570Z,59.17
2022-10-21T10:29:14.350Z,58.30
2022-10-21T10:31:54.972Z,57.03
2022-10-21T10:34:36.410Z,48.33
2022-10-21T10:37:21.471Z,53.30
2022-10-21T10:40:03.336Z,58.17
2022-10-21T10:42:41.290Z,53.83
2022-10-21T10:45:24.606Z,54.43
2022-10-21T10:48:01.839Z,56.43
2022-10-21T10:50:57.333Z,52.30
2022-10-21T10:53:38.826Z,59.17
2022-10-21T10:56:24.274Z,48.87
2022-10-21T10:59:10.799Z,60.03
2022-10-21T11:01:57.931Z,61.40
2022-10-21T11:04:40.367Z,62.00
2022-10-21T11:07:24.103Z,57.10
2022-10-21T11:10:07.967Z,58.47
2022-10-21T11:12:43.328Z,59.03
2022-10-21T11:15:20.997Z,61.77
2022-10-21T11:18:17.111Z,65.83
2022-10-21T11:21:11.220Z,66.17
2022-10-21T11:23:58.656Z,78.57
2022-10-21T11:26:41.411Z,71.63
2022-10-21T11:29:34.845Z,77.37
2022-10-21T11:32:24.720Z,77.73
2022-10-21T11:35:21.260Z,76.27
2022-10-21T11:38:10.711Z,77.17
2022-10-21T11:40:53.828Z,54.53
2022-10-21T11:43:43.199Z,60.00
2022-10-21T11:46:22.709Z,75.67
2022-10-21T11:49:15.336Z,81.80
2022-10-21T11:52:03.256Z,98.33
2022-10-21T11:55:10.418Z,95.23
2022-10-21T11:57:55.973Z,111.67
2022-10-21T12:00:30.986Z,99.80
2022-10-21T12:03:30.145Z,92.37
2022-10-21T12:06:14.297Z,94.10
2022-10-21T12:08:56.624Z,108.70
2022-10-21T12:11:34.098Z,95.87
2022-10-21T12:14:21.904Z,99.90
2022-10-21T12:16:59.003Z,101.90
2022-10-21T12:19:35.274Z,94.70
2022-10-21T12:22:14.763Z,93.90
2022-10-21T12:25:01.102Z,97.30
2022-10-21T12:27:40.920Z,89.67
2022-10-21T12:30:23.514Z,89.13
2022-10-21T12:33:18.924Z,90.60
2022-10-21T12:36:00.919Z,88.90
2022-10-21T12:38:52.178Z,96.73
2022-10-21T12:41:35.742Z,94.93
2022-10-21T12:44:40.047Z,89.80
2022-10-21T12:47:32.351Z,86.50
2022-10-21T12:50:30.124Z,84.43
2022-10-21T12:53:28.235Z,75.70
2022-10-21T12:56:05.076Z,81.83
2022-10-21T12:58:48.696Z,76.00
2022-10-21T13:01:48.008Z,83.30
2022-10-21T13:04:58.010Z,80.80
2022-10-21T13:07:38.723Z,94.17
2022-10-21T13:10:33.712Z,104.20
2022-10-21T13:13:36.814Z,98.33
2022-10-21T13:16:48.025Z,104.13
2022-10-21T13:19:42.707Z,101.93
2022-10-21T13:22:19.629Z,100.77
2022-10-21T13:25:01.340Z,99.77
2022-10-21T13:27:39.860Z,94.80
2022-10-21T13:30:34.905Z,96.77
2022-10-21T13:33:11.351Z,113.27
2022-10-21T13:35:56.353Z,108.57
2022-10-21T13:38:33.513Z,99.90
2022-10-21T13:41:10.520Z,95.40
2022-10-21T13:43:58.454Z,98.10
2022-10-21T13:46:42.585Z,102.93
2022-10-21T13:49:32.170Z,82.53
2022-10-21T13:52:15.934Z,95.13
2022-10-21T13:54:51.140Z,96.47
2022-10-21T13:57:29.522Z,92.20
2022-10-21T14:00:09.811Z,99.77
2022-10-21T14:02:55.651Z,102.93
2022-10-21T14:05:35.909Z,101.97
2022-10-21T14:08:22.042Z,101.70
2022-10-21T14:11:01.696Z,99.27
2022-10-21T14:13:40.930Z,104.30
2022-10-21T14:16:23.905Z,108.93
2022-10-21T14:18:59.961Z,120.20
2022-10-21T14:21:40.281Z,118.33
2022-10-21T14:24:34.203Z,101.30
2022-10-21T14:27:13.340Z,106.97
2022-10-21T14:29:50.508Z,108.00
2022-10-21T14:32:27.123Z,108.67
2022-10-21T14:35:25.307Z,128.10
2022-10-21T14:38:01.741Z,107.93
2022-10-21T14:40:41.814Z,103.40
2022-10-21T14:43:24.008Z,110.40
2022-10-21T14:45:59.701Z,105.47
2022-10-21T14:48:36.358Z,102.00
2022-10-21T14:51:17.698Z,110.03
2022-10-21T14:54:02.535Z,106.20
2022-10-21T14:56:40.294Z,109.33
2022-10-21T14:59:24.219Z,107.63
2022-10-21T15:02:06.616Z,97.67
2022-10-21T15:04:57.132Z,94.33
2022-10-21T15:07:36.316Z,106.37
2022-10-21T15:10:22.714Z,113.63
2022-10-21T15:13:01.857Z,105.17
2022-10-21T15:15:54.990Z,99.03
2022-10-21T15:18:34.431Z,109.07
2022-10-21T15:21:14.371Z,117.53
2022-10-21T15:23:55.719Z,108.67
2022-10-21T15:26:34.765Z,111.67
2022-10-21T15:29:27.299Z,119.33
2022-10-21T15:32:03.118Z,122.63
2022-10-21T15:34:39.764Z,117.93
2022-10-21T15:37:15.087Z,127.17
2022-10-21T15:39:54.357Z,126.73
2022-10-21T15:42:29.466Z,124.30
2022-10-21T15:45:08.585Z,122.40
2022-10-21T15:47:54.071Z,129.87
2022-10-21T15:50:38.032Z,127.30
2022-10-21T15:53:17.675Z,131.53
2022-10-21T15:55:55.164Z,135.17
2022-10-21T15:58:29.648Z,132.67
2022-10-21T16:01:05.962Z,123.40
2022-10-21T16:03:46.207Z,123.70
2022-10-21T16:06:21.852Z,117.03
2022-10-21T16:09:01.257Z,121.27
2022-10-21T16:11:41.453Z,130.03
2022-10-21T16:14:25.758Z,117.87
2022-10-21T16:17:02.901Z,115.87
2022-10-21T16:19:36.480Z,122.80
2022-10-21T16:22:20.184Z,118.13
2022-10-21T16:24:55.148Z,113.47
2022-10-21T16:27:43.855Z,121.13
2022-10-21T16:30:25.957Z,124.87
2022-10-21T16:33:03.926Z,123.93
2022-10-21T16:35:38.417Z,121.07
2022-10-21T16:38:13.130Z,124.73
2022-10-21T16:40:52.797Z,122.90
2022-10-21T16:43:29.049Z,124.33
2022-10-21T16:46:07.818Z,125.73
2022-10-21T16:48:46.974Z,131.90
2022-10-21T16:51:24.748Z,124.57
2022-10-21T16:53:58.790Z,126.63
2022-10-21T16:56:33.884Z,125.57
2022-10-21T16:59:09.099Z,130.53
2022-10-21T17:01:43.973Z,126.70
2022-10-21T17:04:21.722Z,123.93
2022-10-21T17:06:57.641Z,127.47
2022-10-21T17:09:35.680Z,124.23
2022-10-21T17:12:16.607Z,123.60
2022-10-21T17:14:51.400Z,132.67
2022-10-21T17:17:25.912Z,136.90
2022-10-21T17:20:02.742Z,134.20
2022-10-21T17:22:43.258Z,132.53
2022-10-21T17:25:18.716Z,130.70
2022-10-21T17:27:53.050Z,122.63
2022-10-21T17:30:27.895Z,141.43
2022-10-21T17:33:02.885Z,127.13
2022-10-21T17:35:39.237Z,116.63
2022-10-21T17:38:15.056Z,121.83
2022-10-21T17:40:50.894Z,128.67
2022-10-21T17:43:24.911Z,132.10
2022-10-21T17:46:00.803Z,128.03
2022-10-21T17:48:35.148Z,122.60
2022-10-21T17:51:11.216Z,128.27
2022-10-21T17:53:44.587Z,128.13
2022-10-21T17:56:18.980Z,132.70
2022-10-21T17:58:56.788Z,127.77
2022-10-21T18:01:31.455Z,135.33
2022-10-21T18:04:05.817Z,139.30
2022-10-21T18:06:41.676Z,136.77
2022-10-21T18:09:15.669Z,131.47
2022-10-21T18:11:49.312Z,134.10
2022-10-21T18:14:22.653Z,130.47
2022-10-21T18:16:56.502Z,136.43
2022-10-21T18:19:33.438Z,129.77
2022-10-21T18:22:09.491Z,128.13
2022-10-21T18:24:43.973Z,136.10
2022-10-21T18:27:18.337Z,133.33
2022-10-21T18:29:52.126Z,138.43
2022-10-21T18:32:26.244Z,132.60
2022-10-21T18:35:00.445Z,135.00
2022-10-21T18:37:36.286Z,144.30
2022-10-21T18:40:11.248Z,140.00
2022-10-21T18:42:45.613Z,143.37
2022-10-21T18:45:19.646Z,128.53
2022-10-21T18:47:54.988Z,134.87
2022-10-21T18:50:28.969Z,134.43
2022-10-21T18:53:04.738Z,127.00
2022-10-21T18:55:38.547Z,141.33
2022-10-21T18:58:11.947Z,135.20
2022-10-21T19:00:46.111Z,140.70
2022-10-21T19:03:22.991Z,140.10
2022-10-21T19:05:57.500Z,130.53
2022-10-21T19:08:33.524Z,135.40
2022-10-21T19:11:07.555Z,141.33
2022-10-21T19:13:41.386Z,135.70
2022-10-21T19:16:15.632Z,130.87
2022-10-21T19:18:52.517Z,130.40
2022-10-21T19:21:27.366Z,132.77
2022-10-21T19:24:04.475Z,135.17
2022-10-21T19:26:39.225Z,132.47
2022-10-21T19:29:17.531Z,131.23
2022-10-21T19:31:52.316Z,126.37
2022-10-21T19:34:27.924Z,122.87
2022-10-21T19:37:02.532Z,126.03
2022-10-21T19:39:38.841Z,136.27
2022-10-21T19:42:18.094Z,128.20
2022-10-21T19:44:52.182Z,128.37
2022-10-21T19:47:26.285Z,113.77
2022-10-21T19:49:59.379Z,122.50
2022-10-21T19:52:33.585Z,128.87
2022-10-21T19:55:10.213Z,115.20
2022-10-21T19:57:43.770Z,118.93
2022-10-21T20:00:18.401Z,120.93
2022-10-21T20:02:53.228Z,120.77
2022-10-21T20:05:26.747Z,120.87
2022-10-21T20:08:04.712Z,133.73
2022-10-21T20:10:40.176Z,134.30
2022-10-21T20:13:15.502Z,126.53
2022-10-21T20:15:52.465Z,142.57
2022-10-21T20:18:27.506Z,121.63
2022-10-21T20:21:02.954Z,123.43
2022-10-21T20:23:37.280Z,128.67
2022-10-21T20:26:13.114Z,133.67
2022-10-21T20:28:46.640Z,138.20
2022-10-21T20:31:20.895Z,147.53
2022-10-21T20:33:55.913Z,145.67
2022-10-21T20:36:30.901Z,132.60
2022-10-21T20:39:05.761Z,138.10
2022-10-21T20:41:44.435Z,142.27
2022-10-21T20:44:20.433Z,143.57
2022-10-21T20:46:55.059Z,133.60
2022-10-21T20:49:29.284Z,138.23
2022-10-21T20:52:02.828Z,139.37
2022-10-21T20:54:36.828Z,130.27
2022-10-21T20:57:13.153Z,129.40
2022-10-21T20:59:47.338Z,140.43
2022-10-21T21:02:24.437Z,150.90
2022-10-21T21:04:58.509Z,125.93
2022-10-21T21:07:31.965Z,118.57
2022-10-21T21:10:05.422Z,122.20
2022-10-21T21:12:41.591Z,127.37
2022-10-21T21:15:16.228Z,116.30
2022-10-21T21:17:52.596Z,125.40
2022-10-21T21:20:27.133Z,116.27
2022-10-21T21:23:01.615Z,118.53
2022-10-21T21:25:37.589Z,122.33
2022-10-21T21:28:13.776Z,138.10
2022-10-21T21:30:54.594Z,133.53
2022-10-21T21:33:28.502Z,134.53
2022-10-21T21:36:02.589Z,143.53
2022-10-21T21:38:38.077Z,122.30
2022-10-21T21:41:12.160Z,121.20
2022-10-21T21:43:48.742Z,122.57
2022-10-21T21:46:25.767Z,117.97
2022-10-21T21:49:04.685Z,133.63
2022-10-21T21:51:40.002Z,127.97
2022-10-21T21:54:14.111Z,134.43
2022-10-21T21:56:47.832Z,134.63
2022-10-21T21:59:25.103Z,132.67
2022-10-21T22:01:59.414Z,133.63
2022-10-21T22:04:33.674Z,145.60
2022-10-21T22:07:08.129Z,139.70
2022-10-21T22:09:41.869Z,140.13
2022-10-21T22:12:16.301Z,139.53
2022-10-21T22:14:51.820Z,140.77
2022-10-21T22:17:25.575Z,140.37
2022-10-21T22:19:59.455Z,130.80
2022-10-21T22:22:33.457Z,135.93
2022-10-21T22:25:09.496Z,128.27
2022-10-21T22:27:43.127Z,124.63
2022-10-21T22:30:21.033Z,145.33
2022-10-21T22:32:55.455Z,132.77
2022-10-21T22:35:32.395Z,134.40
2022-10-21T22:38:06.752Z,138.87
2022-10-21T22:40:41.527Z,134.33
2022-10-21T22:43:14.871Z,155.37
2022-10-21T22:46:01.123Z,141.47
2022-10-21T22:48:43.254Z,144.43
2022-10-21T22:51:16.738Z,149.17
2022-10-21T22:53:55.221Z,151.47
2022-10-21T22:56:31.332Z,152.17
2022-10-21T22:59:05.481Z,153.30
2022-10-21T23:01:41.392Z,151.83
2022-10-21T23:04:16.333Z,158.80
2022-10-21T23:06:50.267Z,162.93
2022-10-21T23:09:23.468Z,148.70
2022-10-21T23:11:56.823Z,141.20
2022-10-21T23:14:33.631Z,152.67
2022-10-21T23:17:09.317Z,156.80
2022-10-21T23:19:42.831Z,140.77
2022-10-21T23:22:16.768Z,158.27
2022-10-21T23:24:50.694Z,147.53
2022-10-21T23:27:24.223Z,149.77
2022-10-21T23:29:58.206Z,153.07
2022-10-21T23:32:33.418Z,146.03
2022-10-21T23:35:11.277Z,152.67
2022-10-21T23:37:45.761Z,161.27
2022-10-21T23:40:20.058Z,152.43
2022-10-21T23:42:54.131Z,154.43
2022-10-21T23:45:29.825Z,158.37
2022-10-21T23:48:04.995Z,168.33
2022-10-21T23:50:43.874Z,166.07
2022-10-21T23:53:18.610Z,156.37
2022-10-21T23:55:52.569Z,161.73
2022-10-21T23:58:26.950Z,157.60
